Catherine Scan — V2OC9 — position and weather

sailwx.info

Track history (hours):
 
Tides and Currents Weather Stations Pressure Air Temp Water Temp Dewpoint Dewpoint Depression Visibility Wind Speed Wind Dir Waves Ship Positions

Catherine Scan

Last reported at 2017-Nov-13 01:19 UTC. Time now 2017-Nov-18 21:27 UTC.
Position N 29°20' W 094°35'.

Length 100 m; draft 6.3 m.

Type: Cargo ship. MMSI: 304010983.

Date/timePositionNaut miles runAvg speedWind from/ knotsBaromVisibWave heightAir tempDewpointWater temp
2017-Nov-13 01:19N 29°20' W 094°35'2 6.9
2017-Nov-13 01:00N 29°19' W 094°38'611.7
2017-Nov-13 00:30N 29°21' W 094°44'811.7
2017-Nov-12 23:50N 29°26' W 094°50'413.0
2017-Nov-12 23:30N 29°30' W 094°52'612.7
2017-Nov-12 23:00N 29°35' W 094°56'612.4
2017-Nov-12 22:31N 29°41' W 094°59'5 9.4
2017-Nov-12 22:00N 29°44' W 095°03'3 5.7
2017-Nov-12 21:27N 29°44' W 095°07'3 7.0
2017-Nov-12 21:00N 29°45' W 095°10'0 0.1
2017-Nov-12 20:22N 29°45' W 095°11'0 0.0
2017-Nov-12 17:58N 29°45' W 095°11'0 0.0
2017-Nov-12 17:28N 29°45' W 095°11'0 0.0
2017-Nov-12 16:34N 29°45' W 095°11'0 0.0
2017-Nov-12 14:25N 29°45' W 095°11'0 0.0
2017-Nov-12 13:58N 29°45' W 095°11'0 0.0
2017-Nov-12 13:28N 29°45' W 095°11'0 0.0
2017-Nov-12 12:55N 29°45' W 095°11'0 0.0
2017-Nov-12 12:25N 29°45' W 095°11'0 0.0
2017-Nov-12 11:58N 29°45' W 095°11'0 0.0
2017-Nov-12 11:25N 29°45' W 095°11'0 0.0
2017-Nov-12 10:58N 29°45' W 095°11'0 0.0
2017-Nov-12 10:25N 29°45' W 095°11'0 0.0
2017-Nov-12 09:58N 29°45' W 095°11'0 0.0
2017-Nov-12 09:19N 29°45' W 095°11'0 0.0
2017-Nov-12 08:58N 29°45' W 095°11'0 0.0
2017-Nov-12 08:28N 29°45' W 095°11'0 0.0
2017-Nov-12 07:55N 29°45' W 095°11'0 0.0
2017-Nov-12 07:22N 29°45' W 095°11'0 0.0
2017-Nov-12 06:58N 29°45' W 095°11'0 0.0
2017-Nov-12 06:13N 29°45' W 095°11'0 0.0
2017-Nov-12 05:58N 29°45' W 095°11'0 0.0
2017-Nov-12 05:19N 29°45' W 095°11'0 0.0
2017-Nov-12 04:55N 29°45' W 095°11'0 0.0
2017-Nov-12 04:22N 29°45' W 095°11'0 0.0
2017-Nov-12 03:58N 29°45' W 095°11'0 0.0
2017-Nov-12 03:28N 29°45' W 095°11'0 0.0
2017-Nov-12 02:58N 29°45' W 095°11'0 0.0
2017-Nov-12 01:37N 29°45' W 095°11'0 0.0
2017-Nov-12 01:22N 29°45' W 095°11'0 0.0
2017-Nov-12 00:58N 29°45' W 095°11'0 0.0
2017-Nov-12 00:19N 29°45' W 095°11'0 0.0
2017-Nov-11 23:52N 29°45' W 095°11'0 0.0
2017-Nov-11 23:16N 29°45' W 095°11'0 0.0
2017-Nov-11 22:46N 29°45' W 095°11'0 0.0
2017-Nov-11 22:28N 29°45' W 095°11'0 0.0
2017-Nov-11 21:10N 29°45' W 095°11'0 0.0
2017-Nov-11 20:43N 29°45' W 095°11'0 0.0
2017-Nov-11 20:28N 29°45' W 095°11'0 0.0
2017-Nov-11 19:49N 29°45' W 095°11'0 0.0
2017-Nov-11 19:28N 29°45' W 095°11'0 0.0
2017-Nov-11 18:40N 29°45' W 095°11'0 0.0
2017-Nov-11 18:22N 29°45' W 095°11'0 0.0
2017-Nov-11 17:52N 29°45' W 095°11'0 0.0
2017-Nov-11 17:28N 29°45' W 095°11'0 0.0
2017-Nov-11 16:58N 29°45' W 095°11'0 0.0
2017-Nov-11 16:25N 29°45' W 095°11'0 0.0
2017-Nov-11 14:58N 29°45' W 095°11'0 0.0
2017-Nov-11 14:28N 29°45' W 095°11'0 0.0
2017-Nov-11 13:46N 29°45' W 095°11'0 0.0
2017-Nov-11 13:22N 29°45' W 095°11'0 0.0
2017-Nov-11 12:49N 29°45' W 095°11'0 0.0
2017-Nov-11 12:28N 29°45' W 095°11'0 0.0
2017-Nov-11 11:46N 29°45' W 095°11'0 0.0
2017-Nov-11 11:22N 29°45' W 095°11'0 0.0
2017-Nov-11 10:58N 29°45' W 095°11'0 0.0
2017-Nov-11 10:28N 29°45' W 095°11'0 0.0
2017-Nov-11 09:58N 29°45' W 095°11'0 0.0
2017-Nov-11 09:28N 29°45' W 095°11'0 0.0
2017-Nov-11 08:58N 29°45' W 095°11'0 0.0
2017-Nov-11 08:10N 29°45' W 095°11'0 0.0
2017-Nov-11 07:58N 29°45' W 095°11'0 0.0
2017-Nov-11 07:22N 29°45' W 095°11'0 0.0
2017-Nov-11 06:55N 29°45' W 095°11'0 0.0
2017-Nov-11 06:10N 29°45' W 095°11'0 0.0
2017-Nov-11 05:52N 29°45' W 095°11'0 0.0
2017-Nov-11 05:28N 29°45' W 095°11'0 0.0
2017-Nov-11 04:49N 29°45' W 095°11'0 0.0
2017-Nov-11 04:25N 29°45' W 095°11'0 0.0
2017-Nov-11 03:52N 29°45' W 095°11'0 0.0
2017-Nov-11 03:28N 29°45' W 095°11'0 0.0
2017-Nov-11 02:52N 29°45' W 095°11'0 0.0
2017-Nov-11 02:28N 29°45' W 095°11'0 0.0
2017-Nov-10 23:49N 29°45' W 095°11'0 0.0
2017-Nov-10 23:25N 29°45' W 095°11'0 0.0
2017-Nov-10 12:33N 29°45' W 095°11'0 0.0
2017-Nov-10 12:15N 29°45' W 095°11'0 0.1
2017-Nov-10 11:57N 29°45' W 095°11'1 1.1
2017-Nov-10 11:30N 29°45' W 095°10'3 6.6
2017-Nov-10 11:00N 29°45' W 095°06'3 6.6
2017-Nov-10 10:30N 29°44' W 095°02'4 8.9
2017-Nov-10 10:00N 29°41' W 094°59'612.1
2017-Nov-10 09:30N 29°35' W 094°56'612.5
2017-Nov-10 09:00N 29°30' W 094°52'  
Track history (hours):
 
Tides and Currents Weather Stations Pressure Air Temp Water Temp Dewpoint Dewpoint Depression Visibility Wind Speed Wind Dir Waves Ship Positions

Catherine Scan

Last reported at 2017-Nov-13 01:19 UTC. Time now 2017-Nov-18 21:27 UTC.
Position N 29°20' W 094°35'.

Length 100 m; draft 6.3 m.

Type: Cargo ship. MMSI: 304010983.

Date/timePositionNaut miles runAvg speedWind from/ knotsBaromVisibWave heightAir tempDewpointWater temp
2017-Nov-13 01:19N 29°20' W 094°35'2 6.9
2017-Nov-13 01:00N 29°19' W 094°38'611.7
2017-Nov-13 00:30N 29°21' W 094°44'811.7
2017-Nov-12 23:50N 29°26' W 094°50'413.0
2017-Nov-12 23:30N 29°30' W 094°52'612.7
2017-Nov-12 23:00N 29°35' W 094°56'612.4
2017-Nov-12 22:31N 29°41' W 094°59'5 9.4
2017-Nov-12 22:00N 29°44' W 095°03'3 5.7
2017-Nov-12 21:27N 29°44' W 095°07'3 7.0
2017-Nov-12 21:00N 29°45' W 095°10'0 0.1
2017-Nov-12 20:22N 29°45' W 095°11'0 0.0
2017-Nov-12 17:58N 29°45' W 095°11'0 0.0
2017-Nov-12 17:28N 29°45' W 095°11'0 0.0
2017-Nov-12 16:34N 29°45' W 095°11'0 0.0
2017-Nov-12 14:25N 29°45' W 095°11'0 0.0
2017-Nov-12 13:58N 29°45' W 095°11'0 0.0
2017-Nov-12 13:28N 29°45' W 095°11'0 0.0
2017-Nov-12 12:55N 29°45' W 095°11'0 0.0
2017-Nov-12 12:25N 29°45' W 095°11'0 0.0
2017-Nov-12 11:58N 29°45' W 095°11'0 0.0
2017-Nov-12 11:25N 29°45' W 095°11'0 0.0
2017-Nov-12 10:58N 29°45' W 095°11'0 0.0
2017-Nov-12 10:25N 29°45' W 095°11'0 0.0
2017-Nov-12 09:58N 29°45' W 095°11'0 0.0
2017-Nov-12 09:19N 29°45' W 095°11'0 0.0
2017-Nov-12 08:58N 29°45' W 095°11'0 0.0
2017-Nov-12 08:28N 29°45' W 095°11'0 0.0
2017-Nov-12 07:55N 29°45' W 095°11'0 0.0
2017-Nov-12 07:22N 29°45' W 095°11'0 0.0
2017-Nov-12 06:58N 29°45' W 095°11'0 0.0
2017-Nov-12 06:13N 29°45' W 095°11'0 0.0
2017-Nov-12 05:58N 29°45' W 095°11'0 0.0
2017-Nov-12 05:19N 29°45' W 095°11'0 0.0
2017-Nov-12 04:55N 29°45' W 095°11'0 0.0
2017-Nov-12 04:22N 29°45' W 095°11'0 0.0
2017-Nov-12 03:58N 29°45' W 095°11'0 0.0
2017-Nov-12 03:28N 29°45' W 095°11'0 0.0
2017-Nov-12 02:58N 29°45' W 095°11'0 0.0
2017-Nov-12 01:37N 29°45' W 095°11'0 0.0
2017-Nov-12 01:22N 29°45' W 095°11'0 0.0
2017-Nov-12 00:58N 29°45' W 095°11'0 0.0
2017-Nov-12 00:19N 29°45' W 095°11'0 0.0
2017-Nov-11 23:52N 29°45' W 095°11'0 0.0
2017-Nov-11 23:16N 29°45' W 095°11'0 0.0
2017-Nov-11 22:46N 29°45' W 095°11'0 0.0
2017-Nov-11 22:28N 29°45' W 095°11'0 0.0
2017-Nov-11 21:10N 29°45' W 095°11'0 0.0
2017-Nov-11 20:43N 29°45' W 095°11'0 0.0
2017-Nov-11 20:28N 29°45' W 095°11'0 0.0
2017-Nov-11 19:49N 29°45' W 095°11'0 0.0
2017-Nov-11 19:28N 29°45' W 095°11'0 0.0
2017-Nov-11 18:40N 29°45' W 095°11'0 0.0
2017-Nov-11 18:22N 29°45' W 095°11'0 0.0
2017-Nov-11 17:52N 29°45' W 095°11'0 0.0
2017-Nov-11 17:28N 29°45' W 095°11'0 0.0
2017-Nov-11 16:58N 29°45' W 095°11'0 0.0
2017-Nov-11 16:25N 29°45' W 095°11'0 0.0
2017-Nov-11 14:58N 29°45' W 095°11'0 0.0
2017-Nov-11 14:28N 29°45' W 095°11'0 0.0
2017-Nov-11 13:46N 29°45' W 095°11'0 0.0
2017-Nov-11 13:22N 29°45' W 095°11'0 0.0
2017-Nov-11 12:49N 29°45' W 095°11'0 0.0
2017-Nov-11 12:28N 29°45' W 095°11'0 0.0
2017-Nov-11 11:46N 29°45' W 095°11'0 0.0
2017-Nov-11 11:22N 29°45' W 095°11'0 0.0
2017-Nov-11 10:58N 29°45' W 095°11'0 0.0
2017-Nov-11 10:28N 29°45' W 095°11'0 0.0
2017-Nov-11 09:58N 29°45' W 095°11'0 0.0
2017-Nov-11 09:28N 29°45' W 095°11'0 0.0
2017-Nov-11 08:58N 29°45' W 095°11'0 0.0
2017-Nov-11 08:10N 29°45' W 095°11'0 0.0
2017-Nov-11 07:58N 29°45' W 095°11'0 0.0
2017-Nov-11 07:22N 29°45' W 095°11'0 0.0
2017-Nov-11 06:55N 29°45' W 095°11'0 0.0
2017-Nov-11 06:10N 29°45' W 095°11'0 0.0
2017-Nov-11 05:52N 29°45' W 095°11'0 0.0
2017-Nov-11 05:28N 29°45' W 095°11'0 0.0
2017-Nov-11 04:49N 29°45' W 095°11'0 0.0
2017-Nov-11 04:25N 29°45' W 095°11'0 0.0
2017-Nov-11 03:52N 29°45' W 095°11'0 0.0
2017-Nov-11 03:28N 29°45' W 095°11'0 0.0
2017-Nov-11 02:52N 29°45' W 095°11'0 0.0
2017-Nov-11 02:28N 29°45' W 095°11'0 0.0
2017-Nov-10 23:49N 29°45' W 095°11'0 0.0
2017-Nov-10 23:25N 29°45' W 095°11'0 0.0
2017-Nov-10 12:33N 29°45' W 095°11'0 0.0
2017-Nov-10 12:15N 29°45' W 095°11'0 0.1
2017-Nov-10 11:57N 29°45' W 095°11'1 1.1
2017-Nov-10 11:30N 29°45' W 095°10'3 6.6
2017-Nov-10 11:00N 29°45' W 095°06'3 6.6
2017-Nov-10 10:30N 29°44' W 095°02'4 8.9
2017-Nov-10 10:00N 29°41' W 094°59'612.1
2017-Nov-10 09:30N 29°35' W 094°56'612.5
2017-Nov-10 09:00N 29°30' W 094°52'  

Dump ship's entire track history